Time;durP1;ratioP1;P1;durP2;ratioP2;P2;SDS_P1;SDS_P2;PMS_P1;PMS_P2;Temp;Humidity;BMP_temperature;BMP_pressure;BME280_temperature;BME280_humidity;BME280_pressure;Samples;Min_cycle;Max_cycle;Signal;HPM_P1;HPM_P2
2024/01/21 00:01:56;;;;;;;12.52;7.90;;;1.00;99.70;;;;;;5039243;28;20529;-84
2024/01/21 00:04:22;;;;;;;11.93;7.85;;;1.10;99.60;;;;;;5074063;28;20024;-84
2024/01/21 00:06:47;;;;;;;10.93;6.88;;;1.10;99.60;;;;;;5039985;28;20024;-84
2024/01/21 00:09:13;;;;;;;11.18;7.38;;;1.10;99.60;;;;;;5039688;28;20035;-84
2024/01/21 00:11:39;;;;;;;12.65;7.28;;;1.10;99.50;;;;;;5056495;28;20433;-84
2024/01/21 00:14:04;;;;;;;10.88;7.47;;;1.00;99.50;;;;;;5039523;28;20021;-85
2024/01/21 00:16:30;;;;;;;11.50;7.20;;;1.00;99.50;;;;;;5039975;28;20448;-84
2024/01/21 00:18:56;;;;;;;11.43;7.18;;;1.00;99.50;;;;;;5039410;28;20032;-82
2024/01/21 00:21:21;;;;;;;11.68;7.50;;;1.00;99.50;;;;;;5024620;28;20153;-84
2024/01/21 00:23:47;;;;;;;10.25;7.30;;;1.00;99.40;;;;;;5070156;28;20028;-84
2024/01/21 00:26:13;;;;;;;12.50;8.07;;;1.00;99.40;;;;;;5098197;28;20032;-83
2024/01/21 00:28:39;;;;;;;12.45;7.53;;;1.00;99.40;;;;;;5063916;28;20096;-84
2024/01/21 00:31:05;;;;;;;11.55;7.72;;;1.00;99.40;;;;;;5056586;28;20099;-84
2024/01/21 00:33:31;;;;;;;12.63;7.18;;;1.00;99.40;;;;;;5081890;28;20024;-84
2024/01/21 00:35:56;;;;;;;11.93;7.30;;;1.00;99.40;;;;;;5075921;28;20058;-84
2024/01/21 00:38:22;;;;;;;10.60;6.93;;;1.00;99.40;;;;;;5042177;28;20483;-85
2024/01/21 00:40:48;;;;;;;11.15;7.47;;;1.00;99.30;;;;;;5042186;28;20395;-84
2024/01/21 00:43:14;;;;;;;11.05;6.70;;;1.00;99.30;;;;;;5055294;28;20025;-84
2024/01/21 00:45:39;;;;;;;10.02;7.13;;;1.00;99.30;;;;;;5055664;28;20036;-84
2024/01/21 00:48:05;;;;;;;11.05;7.20;;;1.00;99.30;;;;;;5065184;28;20032;-84
2024/01/21 00:50:31;;;;;;;12.80;7.22;;;1.00;99.30;;;;;;5057188;28;20103;-84
2024/01/21 00:52:57;;;;;;;11.25;7.03;;;1.00;99.30;;;;;;5055580;28;20414;-84
2024/01/21 00:55:23;;;;;;;10.05;7.15;;;1.10;99.30;;;;;;5038871;28;20434;-84
2024/01/21 00:57:48;;;;;;;10.45;6.78;;;1.10;99.30;;;;;;5033966;28;20107;-84
2024/01/21 01:00:15;;;;;;;10.32;7.07;;;1.10;99.30;;;;;;5058618;28;20527;-84
2024/01/21 01:02:40;;;;;;;9.40;6.25;;;1.10;99.30;;;;;;5041883;28;20055;-84
2024/01/21 01:05:06;;;;;;;12.18;7.20;;;1.10;99.30;;;;;;5042135;28;20104;-86
2024/01/21 01:07:34;;;;;;;9.90;6.75;;;1.10;99.20;;;;;;5062609;28;20025;-85
2024/01/21 01:10:00;;;;;;;11.23;7.38;;;1.10;99.20;;;;;;5039699;28;20040;-85
2024/01/21 01:12:26;;;;;;;12.85;7.18;;;1.00;99.20;;;;;;5049059;28;20025;-85
2024/01/21 01:14:52;;;;;;;11.45;7.22;;;1.00;99.20;;;;;;5057376;28;20029;-85
2024/01/21 01:17:18;;;;;;;11.07;6.50;;;1.00;99.20;;;;;;5072145;28;20035;-85
2024/01/21 01:19:43;;;;;;;11.32;6.93;;;1.00;99.20;;;;;;5051453;28;20031;-85
2024/01/21 01:22:09;;;;;;;9.40;6.55;;;1.00;99.20;;;;;;5080468;28;20028;-84
2024/01/21 01:24:35;;;;;;;9.57;6.10;;;1.00;99.10;;;;;;5059912;28;20032;-85
2024/01/21 01:27:01;;;;;;;12.13;7.38;;;1.00;99.10;;;;;;5043936;28;20029;-85
2024/01/21 01:29:26;;;;;;;10.18;7.20;;;1.00;99.10;;;;;;5043257;28;20029;-85
2024/01/21 01:31:52;;;;;;;10.50;6.38;;;1.00;99.10;;;;;;5028195;28;20052;-84
2024/01/21 01:34:17;;;;;;;10.57;6.35;;;0.90;99.00;;;;;;5062611;28;20052;-85
2024/01/21 01:36:43;;;;;;;9.77;6.65;;;0.90;99.00;;;;;;5063152;28;20107;-84
2024/01/21 01:39:09;;;;;;;10.90;7.05;;;0.90;99.00;;;;;;5087201;28;20044;-84
2024/01/21 01:41:34;;;;;;;10.25;6.63;;;0.90;99.00;;;;;;5093215;28;20029;-85
2024/01/21 01:44:00;;;;;;;11.20;6.78;;;0.90;99.00;;;;;;5083321;28;20222;-84
2024/01/21 01:46:26;;;;;;;10.70;6.65;;;0.90;99.00;;;;;;5054877;28;20037;-85
2024/01/21 01:48:51;;;;;;;11.07;6.85;;;0.90;99.00;;;;;;5048948;28;20040;-85
2024/01/21 01:51:18;;;;;;;10.65;6.70;;;0.90;99.00;;;;;;5060213;28;20032;-84
2024/01/21 01:53:44;;;;;;;8.80;5.93;;;0.90;99.00;;;;;;5059194;28;20032;-84
2024/01/21 01:56:11;;;;;;;9.80;5.85;;;0.80;99.00;;;;;;5080635;28;20036;-84
2024/01/21 01:58:38;;;;;;;10.38;6.30;;;0.80;99.00;;;;;;5058791;28;20533;-84
2024/01/21 02:01:04;;;;;;;11.07;6.18;;;0.80;99.00;;;;;;5061741;28;20040;-84
2024/01/21 02:03:30;;;;;;;10.98;6.53;;;0.80;98.90;;;;;;5037732;28;20798;-85
2024/01/21 02:05:56;;;;;;;9.57;6.28;;;0.80;98.90;;;;;;5056557;28;20128;-84
2024/01/21 02:08:22;;;;;;;9.10;6.22;;;0.80;98.90;;;;;;5038284;28;20123;-84
2024/01/21 02:10:47;;;;;;;10.43;6.05;;;0.70;98.90;;;;;;5021851;28;20135;-84
2024/01/21 02:13:15;;;;;;;9.50;5.93;;;0.70;98.90;;;;;;5057042;28;20032;-84
2024/01/21 02:15:40;;;;;;;9.32;5.82;;;0.70;98.80;;;;;;5071170;28;20029;-84
2024/01/21 02:18:06;;;;;;;9.55;6.15;;;0.70;98.80;;;;;;5031139;28;20043;-84
2024/01/21 02:20:33;;;;;;;8.60;5.88;;;0.60;98.80;;;;;;5070030;28;20025;-84
2024/01/21 02:22:59;;;;;;;10.40;6.65;;;0.70;98.80;;;;;;5049730;28;20482;-85
2024/01/21 02:25:24;;;;;;;10.27;6.20;;;0.60;98.70;;;;;;5057698;28;20029;-84
2024/01/21 02:27:50;;;;;;;10.23;7.13;;;0.60;98.70;;;;;;5067739;28;20395;-84
2024/01/21 02:30:16;;;;;;;11.85;6.85;;;0.60;98.70;;;;;;5047504;28;20078;-84
2024/01/21 02:32:41;;;;;;;11.98;7.00;;;0.60;98.70;;;;;;5054620;28;20025;-84
2024/01/21 02:35:07;;;;;;;9.18;6.47;;;0.60;98.80;;;;;;5054429;28;20025;-84
2024/01/21 02:37:33;;;;;;;9.05;5.68;;;0.60;98.80;;;;;;5024752;28;20089;-84
2024/01/21 02:39:59;;;;;;;9.13;6.03;;;0.60;98.80;;;;;;5041904;28;20436;-84
2024/01/21 02:42:26;;;;;;;10.55;6.07;;;0.60;98.80;;;;;;5037494;28;20051;-84
2024/01/21 02:44:53;;;;;;;9.38;5.93;;;0.60;98.80;;;;;;5045051;28;20025;-84
2024/01/21 02:47:19;;;;;;;9.32;5.85;;;0.60;98.80;;;;;;5055372;28;20032;-84
2024/01/21 02:49:45;;;;;;;8.98;5.50;;;0.60;98.80;;;;;;5060232;28;20029;-84
2024/01/21 02:52:11;;;;;;;11.02;6.65;;;0.50;98.80;;;;;;5080981;28;20021;-84
2024/01/21 02:54:36;;;;;;;9.98;6.20;;;0.60;98.90;;;;;;5069728;28;20094;-83
2024/01/21 02:57:02;;;;;;;8.32;5.60;;;0.50;98.70;;;;;;5061218;28;20115;-84
2024/01/21 02:59:27;;;;;;;8.93;5.75;;;0.50;98.70;;;;;;5085117;28;20033;-84
2024/01/21 03:01:53;;;;;;;9.50;5.60;;;0.60;98.80;;;;;;5057789;28;20160;-84
2024/01/21 03:04:19;;;;;;;8.57;5.78;;;0.60;98.70;;;;;;5028229;28;20451;-83
2024/01/21 03:06:44;;;;;;;9.68;6.30;;;0.60;98.80;;;;;;5066495;28;20385;-84
2024/01/21 03:09:10;;;;;;;8.07;5.45;;;0.60;99.00;;;;;;5065371;28;20388;-84
2024/01/21 03:11:38;;;;;;;7.60;5.05;;;0.60;98.70;;;;;;5070594;28;20376;-84
2024/01/21 03:14:04;;;;;;;9.13;5.05;;;0.60;98.70;;;;;;5057308;28;20460;-84
2024/01/21 03:16:29;;;;;;;8.00;4.90;;;0.70;98.70;;;;;;5075608;28;20031;-84
2024/01/21 03:18:55;;;;;;;7.93;5.35;;;0.70;98.70;;;;;;5076841;28;20117;-84
2024/01/21 03:21:22;;;;;;;9.30;5.85;;;0.80;98.70;;;;;;5076808;28;20075;-83
2024/01/21 03:23:47;;;;;;;7.75;4.72;;;0.70;98.60;;;;;;5075515;28;20063;-84
2024/01/21 03:26:13;;;;;;;8.63;5.25;;;0.80;98.60;;;;;;5055857;28;20056;-85
2024/01/21 03:28:39;;;;;;;6.80;4.70;;;0.80;98.60;;;;;;5023505;28;20387;-84
2024/01/21 03:31:04;;;;;;;7.78;5.30;;;0.80;98.60;;;;;;5056722;28;20078;-84
2024/01/21 03:33:30;;;;;;;8.32;5.53;;;0.80;98.60;;;;;;5039927;28;20032;-84
2024/01/21 03:35:56;;;;;;;6.50;4.38;;;0.80;98.50;;;;;;5056251;28;20476;-84
2024/01/21 03:38:22;;;;;;;8.75;5.10;;;0.90;98.60;;;;;;5056671;28;20050;-84
2024/01/21 03:40:48;;;;;;;7.78;4.30;;;0.90;98.50;;;;;;5070713;28;20020;-85
2024/01/21 03:43:13;;;;;;;8.25;5.03;;;0.90;98.50;;;;;;5059580;28;20028;-84
2024/01/21 03:45:39;;;;;;;6.53;4.13;;;0.90;98.50;;;;;;5058208;28;20032;-85
2024/01/21 03:48:05;;;;;;;7.82;4.85;;;0.90;98.50;;;;;;5066992;28;20024;-84
2024/01/21 03:50:31;;;;;;;7.10;4.30;;;0.90;98.50;;;;;;5050187;28;20024;-84
2024/01/21 03:52:57;;;;;;;6.68;4.32;;;0.90;98.50;;;;;;5074296;28;20029;-85
2024/01/21 03:55:23;;;;;;;7.93;4.32;;;0.90;98.50;;;;;;5056228;28;20178;-84
2024/01/21 03:57:49;;;;;;;7.10;4.43;;;0.90;98.50;;;;;;5062059;28;20040;-84
2024/01/21 04:00:15;;;;;;;8.15;4.75;;;1.00;98.50;;;;;;5057198;28;20482;-84
2024/01/21 04:02:40;;;;;;;6.63;4.50;;;1.00;98.50;;;;;;5058958;28;20063;-84
2024/01/21 04:05:07;;;;;;;6.03;4.25;;;1.00;98.40;;;;;;5075804;28;20460;-84
2024/01/21 04:07:37;;;;;;;7.13;4.20;;;1.00;98.40;;;;;;5065622;28;20025;-84
2024/01/21 04:10:04;;;;;;;6.22;4.22;;;1.00;98.40;;;;;;5096908;28;20020;-84
2024/01/21 04:12:29;;;;;;;6.50;4.32;;;1.00;98.40;;;;;;5079318;28;20009;-83
2024/01/21 04:14:55;;;;;;;6.03;4.28;;;1.00;98.30;;;;;;5096496;28;20055;-84
2024/01/21 04:17:23;;;;;;;7.15;4.20;;;1.10;98.30;;;;;;5077442;28;20383;-84
2024/01/21 04:19:48;;;;;;;7.25;4.90;;;1.00;98.30;;;;;;5064855;28;20438;-84
2024/01/21 04:22:16;;;;;;;7.30;4.00;;;1.10;98.30;;;;;;5028894;28;20028;-84
2024/01/21 04:24:41;;;;;;;6.18;3.80;;;1.00;98.30;;;;;;5076147;28;20024;-85
2024/01/21 04:27:07;;;;;;;7.10;4.45;;;1.10;98.30;;;;;;5090881;28;20494;-84
2024/01/21 04:29:33;;;;;;;5.85;4.07;;;1.10;98.30;;;;;;5055945;28;20366;-84
2024/01/21 04:31:58;;;;;;;7.35;4.15;;;1.10;98.20;;;;;;5046233;28;20043;-84
2024/01/21 04:34:24;;;;;;;7.25;4.05;;;1.10;98.20;;;;;;5044195;28;20044;-84
2024/01/21 04:36:49;;;;;;;6.43;3.72;;;1.00;98.20;;;;;;5059759;28;20483;-84
2024/01/21 04:39:19;;;;;;;6.68;4.30;;;1.10;98.20;;;;;;5055713;28;20039;-84
2024/01/21 04:41:45;;;;;;;6.15;3.70;;;1.10;98.20;;;;;;5046129;28;20382;-85
2024/01/21 04:44:10;;;;;;;7.13;3.83;;;1.10;98.10;;;;;;5059408;28;20032;-85
2024/01/21 04:46:36;;;;;;;6.22;3.65;;;1.10;98.00;;;;;;5058071;28;20437;-85
2024/01/21 04:49:02;;;;;;;6.32;4.03;;;1.20;98.10;;;;;;5069219;28;20416;-84
2024/01/21 04:51:27;;;;;;;5.78;3.33;;;1.20;98.00;;;;;;5050198;28;20032;-84
2024/01/21 04:53:53;;;;;;;5.30;3.28;;;1.20;98.00;;;;;;5079538;28;20398;-85
2024/01/21 04:56:19;;;;;;;7.68;3.83;;;1.20;98.00;;;;;;5073508;28;20028;-84
2024/01/21 04:58:45;;;;;;;5.28;3.28;;;1.20;98.00;;;;;;5079095;28;20480;-84
2024/01/21 05:01:12;;;;;;;4.85;3.40;;;1.20;98.00;;;;;;5097898;28;20031;-84
2024/01/21 05:03:38;;;;;;;4.80;2.97;;;1.20;98.00;;;;;;5058771;28;20044;-85
2024/01/21 05:06:04;;;;;;;6.22;3.63;;;1.20;98.00;;;;;;5026172;28;20087;-85
2024/01/21 05:08:30;;;;;;;5.07;2.97;;;1.30;98.00;;;;;;5060489;28;20029;-84
2024/01/21 05:10:56;;;;;;;4.68;3.17;;;1.20;98.00;;;;;;5078206;28;20025;-85
2024/01/21 05:13:22;;;;;;;5.22;3.05;;;1.30;98.00;;;;;;5047191;28;20021;-85
2024/01/21 05:15:48;;;;;;;4.55;3.08;;;1.30;97.90;;;;;;5077262;28;20031;-85
2024/01/21 05:18:14;;;;;;;5.20;3.30;;;1.40;98.00;;;;;;5059428;28;20029;-84
2024/01/21 05:20:39;;;;;;;7.43;3.65;;;1.40;97.90;;;;;;5042559;28;20060;-84
2024/01/21 05:23:05;;;;;;;6.00;3.47;;;1.50;97.90;;;;;;5081793;28;20039;-85
2024/01/21 05:25:31;;;;;;;4.93;3.03;;;1.50;97.80;;;;;;5067025;28;20012;-82
2024/01/21 05:27:56;;;;;;;5.40;3.53;;;1.50;97.70;;;;;;5083870;28;20028;-84
2024/01/21 05:30:22;;;;;;;6.43;3.38;;;1.50;97.70;;;;;;5067895;28;20068;-84
2024/01/21 05:32:50;;;;;;;5.55;3.40;;;1.60;97.70;;;;;;5083508;28;20056;-84
2024/01/21 05:35:17;;;;;;;5.43;3.05;;;1.60;97.70;;;;;;5068032;28;20024;-84
2024/01/21 05:37:42;;;;;;;4.95;3.30;;;1.60;97.70;;;;;;5058957;28;20453;-85
2024/01/21 05:40:08;;;;;;;4.90;3.00;;;1.70;97.70;;;;;;5042206;28;20112;-84
2024/01/21 05:42:34;;;;;;;4.70;2.90;;;1.70;97.60;;;;;;5046354;28;20048;-84
2024/01/21 05:45:00;;;;;;;4.88;3.40;;;1.70;97.50;;;;;;5058655;28;20388;-85
2024/01/21 05:47:26;;;;;;;7.15;3.40;;;1.70;97.50;;;;;;5066229;28;20482;-86
2024/01/21 05:49:51;;;;;;;5.18;3.20;;;1.70;97.40;;;;;;5044923;28;20051;-85
2024/01/21 05:52:17;;;;;;;5.03;3.28;;;1.70;97.40;;;;;;5089308;28;20054;-85
2024/01/21 05:54:43;;;;;;;5.47;3.30;;;1.70;97.40;;;;;;5077629;28;20025;-84
2024/01/21 05:57:09;;;;;;;4.95;3.33;;;1.70;97.50;;;;;;5075498;28;20034;-85
2024/01/21 05:59:35;;;;;;;6.00;3.42;;;1.70;97.20;;;;;;5076488;28;20064;-85
2024/01/21 06:02:01;;;;;;;5.65;3.58;;;1.80;97.20;;;;;;5066562;28;20063;-85
2024/01/21 06:04:27;;;;;;;5.70;3.22;;;1.70;97.10;;;;;;5058654;28;20052;-85
2024/01/21 06:06:52;;;;;;;5.10;3.15;;;1.70;97.10;;;;;;5078987;28;20063;-85
2024/01/21 06:09:18;;;;;;;5.40;3.50;;;1.80;97.00;;;;;;5041943;28;20036;-85
2024/01/21 06:11:44;;;;;;;5.10;3.35;;;1.70;97.00;;;;;;5025546;28;20415;-84
2024/01/21 06:14:10;;;;;;;5.82;3.30;;;1.70;97.00;;;;;;5058522;28;20021;-86
2024/01/21 06:16:36;;;;;;;5.50;3.25;;;1.80;97.00;;;;;;5041779;28;20032;-85
2024/01/21 06:19:02;;;;;;;6.00;3.42;;;1.80;97.00;;;;;;5063655;28;20048;-85
2024/01/21 06:21:28;;;;;;;6.03;4.25;;;1.80;96.90;;;;;;5061846;28;20380;-85
2024/01/21 06:23:54;;;;;;;5.15;3.30;;;1.80;97.00;;;;;;5060229;28;20021;-85
2024/01/21 06:26:20;;;;;;;7.25;3.97;;;1.80;97.00;;;;;;5041448;28;20040;-86
2024/01/21 06:28:46;;;;;;;5.55;3.65;;;1.80;96.80;;;;;;5053295;28;20097;-84
2024/01/21 06:31:12;;;;;;;6.30;3.83;;;1.80;96.90;;;;;;5076213;28;20029;-85
2024/01/21 06:33:38;;;;;;;4.30;3.25;;;1.80;96.90;;;;;;5047243;28;20035;-85
2024/01/21 06:36:04;;;;;;;6.25;3.65;;;1.80;97.00;;;;;;5057663;28;20048;-86
2024/01/21 06:38:33;;;;;;;9.10;3.92;;;1.80;97.10;;;;;;5026681;28;20056;-85
2024/01/21 06:40:59;;;;;;;6.32;4.20;;;1.80;97.10;;;;;;5089925;28;20020;-84
2024/01/21 06:43:24;;;;;;;5.30;3.70;;;1.90;97.10;;;;;;5089187;28;20013;-85
2024/01/21 06:45:50;;;;;;;5.40;3.78;;;1.90;97.10;;;;;;5058546;28;20047;-82
2024/01/21 06:48:16;;;;;;;7.10;4.40;;;1.90;97.10;;;;;;5082665;28;20514;-85
2024/01/21 06:50:41;;;;;;;6.05;4.20;;;1.90;97.10;;;;;;5025080;28;20037;-85
2024/01/21 06:53:07;;;;;;;5.55;3.72;;;2.00;97.10;;;;;;5070189;28;20028;-85
2024/01/21 06:55:33;;;;;;;5.80;4.00;;;2.00;97.10;;;;;;5058131;28;20380;-85
2024/01/21 06:57:58;;;;;;;7.95;5.18;;;2.10;97.00;;;;;;5065794;28;20117;-85
2024/01/21 07:00:24;;;;;;;7.38;4.38;;;2.10;97.10;;;;;;5062172;28;20110;-85
2024/01/21 07:02:50;;;;;;;7.40;4.80;;;2.10;97.00;;;;;;5057182;28;20047;-83
2024/01/21 07:05:16;;;;;;;6.80;4.90;;;2.10;97.10;;;;;;5042740;28;20036;-85
2024/01/21 07:07:42;;;;;;;8.02;4.28;;;2.10;96.90;;;;;;5041182;28;20104;-85
2024/01/21 07:10:08;;;;;;;6.70;4.13;;;2.10;97.00;;;;;;5040816;28;20055;-85
2024/01/21 07:12:33;;;;;;;6.78;4.28;;;2.10;97.00;;;;;;5040404;28;20032;-85
2024/01/21 07:14:59;;;;;;;6.32;4.22;;;2.20;97.10;;;;;;5046252;28;20024;-85
2024/01/21 07:17:24;;;;;;;6.57;4.30;;;2.20;97.10;;;;;;5066044;28;20058;-85
2024/01/21 07:19:52;;;;;;;6.80;4.43;;;2.30;97.10;;;;;;5051071;28;20040;-86
2024/01/21 07:22:19;;;;;;;7.65;4.75;;;2.30;97.00;;;;;;5083933;28;20102;-85
2024/01/21 07:24:44;;;;;;;5.30;4.18;;;2.30;97.00;;;;;;5068600;28;20035;-86
2024/01/21 07:27:10;;;;;;;6.40;4.28;;;2.30;97.00;;;;;;5059889;28;20368;-85
2024/01/21 07:29:36;;;;;;;6.35;4.47;;;2.30;97.10;;;;;;5060899;28;20042;-85
2024/01/21 07:32:02;;;;;;;7.05;4.70;;;2.30;97.00;;;;;;5076519;28;20093;-85
2024/01/21 07:34:28;;;;;;;6.43;4.50;;;2.30;96.90;;;;;;5051289;28;20036;-86
2024/01/21 07:36:54;;;;;;;6.60;4.25;;;2.30;97.00;;;;;;5041389;28;20365;-82
2024/01/21 07:39:19;;;;;;;6.43;4.20;;;2.30;97.00;;;;;;5054681;28;20040;-87
2024/01/21 07:41:45;;;;;;;7.07;4.40;;;2.30;97.00;;;;;;5077955;28;20065;-86
2024/01/21 07:44:11;;;;;;;6.47;4.22;;;2.40;97.00;;;;;;5057891;28;20029;-87
2024/01/21 07:46:37;;;;;;;7.30;4.53;;;2.40;96.90;;;;;;5041489;28;20031;-88
2024/01/21 07:49:03;;;;;;;6.65;4.47;;;2.40;96.90;;;;;;5060143;28;20028;-87
2024/01/21 07:51:28;;;;;;;7.32;4.63;;;2.40;97.00;;;;;;5041095;28;20031;-85
2024/01/21 07:53:54;;;;;;;7.47;4.80;;;2.40;96.90;;;;;;5050428;28;20036;-85
2024/01/21 07:56:20;;;;;;;7.15;4.55;;;2.50;96.90;;;;;;5062502;28;20025;-83
2024/01/21 07:58:45;;;;;;;6.68;4.28;;;2.50;96.90;;;;;;5086752;28;20174;-84
2024/01/21 08:01:12;;;;;;;6.35;4.53;;;2.50;96.90;;;;;;5079106;28;20012;-85
2024/01/21 08:03:38;;;;;;;5.93;4.25;;;2.60;96.80;;;;;;5089499;28;20040;-83
2024/01/21 08:06:07;;;;;;;6.75;4.75;;;2.60;96.60;;;;;;5088998;28;20098;-85
2024/01/21 08:08:33;;;;;;;7.20;4.35;;;2.60;96.60;;;;;;5061646;28;20032;-85
2024/01/21 08:10:59;;;;;;;8.15;4.85;;;2.60;96.60;;;;;;5048059;28;20460;-86
2024/01/21 08:13:25;;;;;;;6.20;4.30;;;2.70;96.20;;;;;;5056385;28;20548;-85
2024/01/21 08:15:51;;;;;;;6.88;4.50;;;2.70;96.40;;;;;;5072370;28;20455;-86
2024/01/21 08:18:19;;;;;;;7.80;4.53;;;2.70;96.40;;;;;;5056656;28;20033;-86
2024/01/21 08:20:46;;;;;;;7.05;4.30;;;2.80;96.40;;;;;;5066273;28;20032;-85
2024/01/21 08:23:12;;;;;;;7.82;5.07;;;2.80;96.30;;;;;;5062659;28;20082;-86
2024/01/21 08:25:37;;;;;;;6.38;4.38;;;2.80;96.10;;;;;;5056524;28;20036;-85
2024/01/21 08:28:03;;;;;;;6.35;4.55;;;2.80;95.80;;;;;;5024219;28;20025;-86
2024/01/21 08:30:29;;;;;;;7.18;4.63;;;2.80;96.00;;;;;;5085992;28;20024;-86
2024/01/21 08:32:55;;;;;;;6.60;4.43;;;2.80;96.00;;;;;;5061393;28;20482;-86
2024/01/21 08:35:20;;;;;;;7.15;4.53;;;2.90;96.10;;;;;;5077578;28;20028;-85
2024/01/21 08:37:47;;;;;;;5.57;3.60;;;2.90;96.10;;;;;;5057096;28;20086;-87
2024/01/21 08:40:13;;;;;;;6.13;3.90;;;3.00;96.10;;;;;;5059566;28;20032;-86
2024/01/21 08:42:39;;;;;;;6.82;4.22;;;3.00;96.10;;;;;;5061425;28;20035;-86
2024/01/21 08:45:06;;;;;;;7.75;4.75;;;3.00;96.10;;;;;;5058279;28;20536;-86
2024/01/21 08:47:32;;;;;;;6.93;4.45;;;3.00;95.90;;;;;;5058283;28;20092;-86
2024/01/21 08:49:58;;;;;;;8.57;4.47;;;3.10;96.00;;;;;;5057657;28;20025;-87
2024/01/21 08:52:24;;;;;;;6.68;4.40;;;3.10;96.00;;;;;;5053524;28;20032;-86
2024/01/21 08:54:50;;;;;;;6.00;4.13;;;3.10;96.00;;;;;;5046317;28;20020;-86
2024/01/21 08:57:15;;;;;;;7.32;4.53;;;3.10;96.00;;;;;;5056186;28;20028;-86
2024/01/21 08:59:41;;;;;;;7.07;4.68;;;3.10;95.90;;;;;;5057851;28;20025;-86
2024/01/21 09:02:07;;;;;;;6.47;4.63;;;3.20;95.80;;;;;;5076042;28;20027;-86
2024/01/21 09:04:32;;;;;;;6.40;4.43;;;3.20;95.90;;;;;;5052926;28;20048;-85
2024/01/21 09:06:58;;;;;;;7.22;4.40;;;3.20;95.90;;;;;;5056122;28;20480;-85
2024/01/21 09:09:24;;;;;;;7.72;4.68;;;3.30;96.20;;;;;;5058927;28;20032;-85
2024/01/21 09:11:51;;;;;;;7.70;4.75;;;3.30;96.00;;;;;;5042859;28;20040;-86
2024/01/21 09:14:17;;;;;;;7.53;4.30;;;3.30;95.90;;;;;;5044532;28;20048;-84
2024/01/21 09:16:43;;;;;;;6.93;4.40;;;3.30;95.80;;;;;;5116307;28;20083;-86
2024/01/21 09:19:09;;;;;;;6.68;3.80;;;3.30;96.00;;;;;;5082767;28;20035;-81
2024/01/21 09:21:34;;;;;;;7.80;4.25;;;3.40;96.10;;;;;;5063815;28;20013;-85
2024/01/21 09:24:03;;;;;;;6.43;3.92;;;3.40;96.00;;;;;;5040620;28;20038;-85
2024/01/21 09:26:30;;;;;;;7.00;4.65;;;3.40;96.10;;;;;;5094111;28;20031;-84
2024/01/21 09:28:56;;;;;;;7.45;4.10;;;3.50;96.20;;;;;;5060709;28;20060;-85
2024/01/21 09:31:22;;;;;;;7.65;4.25;;;3.50;96.20;;;;;;5045000;28;20029;-86
2024/01/21 09:33:47;;;;;;;6.47;3.97;;;3.60;96.20;;;;;;5062199;28;20036;-86
2024/01/21 09:36:15;;;;;;;6.68;4.57;;;3.50;96.20;;;;;;5056179;28;20031;-86
2024/01/21 09:38:43;;;;;;;6.53;4.15;;;3.60;96.40;;;;;;5060187;28;20035;-87
2024/01/21 09:41:37;;;;;;;6.68;3.75;;;3.60;96.40;;;;;;5049228;28;20071;-87
2024/01/21 09:44:03;;;;;;;8.30;4.40;;;3.60;96.50;;;;;;5059773;28;20021;-87
2024/01/21 09:46:29;;;;;;;6.70;4.32;;;3.60;96.40;;;;;;5059252;28;20021;-86
2024/01/21 09:48:57;;;;;;;6.28;4.28;;;3.70;96.50;;;;;;5067796;28;20449;-86
2024/01/21 09:51:24;;;;;;;9.05;4.43;;;3.70;96.50;;;;;;5059334;28;20107;-86
2024/01/21 09:53:49;;;;;;;6.22;4.57;;;3.70;96.60;;;;;;5072545;28;20028;-86
2024/01/21 09:56:17;;;;;;;6.78;4.50;;;3.70;96.70;;;;;;5049274;28;20024;-86
2024/01/21 09:58:48;;;;;;;7.07;4.35;;;3.70;97.00;;;;;;5073253;28;20038;-86
2024/01/21 10:01:18;;;;;;;5.72;3.97;;;3.70;96.80;;;;;;5059066;28;20127;-85
2024/01/21 10:03:44;;;;;;;5.72;3.65;;;3.80;97.00;;;;;;5062775;28;20049;-85
2024/01/21 10:06:10;;;;;;;5.65;3.85;;;3.70;97.00;;;;;;5062686;28;20147;-87
2024/01/21 10:08:42;;;;;;;6.60;4.15;;;3.80;97.20;;;;;;5060627;28;20027;-86
2024/01/21 10:11:11;;;;;;;6.47;3.92;;;3.80;97.30;;;;;;5058995;28;20024;-85
2024/01/21 10:13:38;;;;;;;6.10;3.90;;;3.80;97.40;;;;;;5046516;28;20073;-87
2024/01/21 10:16:10;;;;;;;5.60;3.90;;;3.80;97.40;;;;;;5062511;28;20476;-87
2024/01/21 10:18:36;;;;;;;6.43;4.10;;;3.90;97.50;;;;;;5045800;28;20090;-87
2024/01/21 10:21:04;;;;;;;5.22;3.83;;;3.90;97.60;;;;;;5049958;28;20476;-87
2024/01/21 10:23:37;;;;;;;6.50;4.20;;;3.90;97.70;;;;;;5077463;28;20020;-86
2024/01/21 10:26:03;;;;;;;6.40;3.95;;;3.90;97.80;;;;;;5076700;28;20028;-85
2024/01/21 10:28:32;;;;;;;6.45;4.18;;;3.90;98.00;;;;;;5059847;28;20116;-86
2024/01/21 10:30:58;;;;;;;6.20;4.40;;;3.90;98.20;;;;;;5051074;28;20029;-85
2024/01/21 10:33:24;;;;;;;6.93;3.88;;;4.00;98.30;;;;;;5074297;28;20019;-82
2024/01/21 10:35:51;;;;;;;7.50;4.70;;;4.00;98.30;;;;;;5072356;28;20032;-84
2024/01/21 10:38:18;;;;;;;6.00;4.13;;;4.10;98.40;;;;;;5092766;28;20092;-83
2024/01/21 10:40:44;;;;;;;6.47;4.47;;;4.10;98.40;;;;;;5068665;28;20041;-86
2024/01/21 10:43:14;;;;;;;7.28;4.53;;;4.10;98.60;;;;;;5100065;28;20070;-87
2024/01/21 10:45:45;;;;;;;7.07;4.80;;;4.20;98.70;;;;;;5069190;28;20016;-87
2024/01/21 10:48:13;;;;;;;6.97;4.45;;;4.20;98.80;;;;;;5067686;28;20107;-87
2024/01/21 10:50:42;;;;;;;7.63;4.20;;;4.20;99.00;;;;;;5061273;28;20028;-87
2024/01/21 10:53:12;;;;;;;8.13;4.63;;;4.20;99.10;;;;;;5056035;28;20115;-87
2024/01/21 10:55:40;;;;;;;6.68;4.38;;;4.30;99.30;;;;;;5086203;28;20103;-86
2024/01/21 10:58:08;;;;;;;6.65;4.00;;;4.30;99.40;;;;;;5043414;28;20024;-86
2024/01/21 11:00:38;;;;;;;8.27;4.53;;;4.30;99.60;;;;;;5060978;28;20039;-86
2024/01/21 11:03:27;;;;;;;6.53;4.32;;;4.30;99.80;;;;;;5077462;28;20068;-85
2024/01/21 11:06:01;;;;;;;5.38;4.18;;;4.40;99.90;;;;;;5077795;28;20022;-85
2024/01/21 11:08:28;;;;;;;6.75;4.82;;;4.40;99.90;;;;;;5045054;28;20040;-86
2024/01/21 11:11:09;;;;;;;6.95;4.75;;;4.30;99.90;;;;;;5058341;28;20082;-85
2024/01/21 11:13:49;;;;;;;5.35;4.03;;;4.40;99.90;;;;;;5069271;28;20471;-87
2024/01/21 11:16:26;;;;;;;7.38;4.65;;;4.50;99.90;;;;;;5095914;28;20059;-86
2024/01/21 11:18:53;;;;;;;7.07;4.28;;;4.50;99.90;;;;;;5064149;28;20043;-87
2024/01/21 11:21:23;;;;;;;6.47;4.75;;;4.50;99.90;;;;;;5057823;28;20033;-86
2024/01/21 11:23:59;;;;;;;6.83;4.63;;;4.50;99.90;;;;;;5069848;28;20020;-86
2024/01/21 11:26:29;;;;;;;6.25;4.43;;;4.50;99.90;;;;;;5083951;28;20017;-86
2024/01/21 11:28:58;;;;;;;6.97;4.50;;;4.50;99.90;;;;;;5075322;28;20036;-87
2024/01/21 11:31:25;;;;;;;7.50;4.82;;;4.50;99.90;;;;;;5075007;28;20017;-87
2024/01/21 11:34:11;;;;;;;5.65;4.32;;;4.50;99.90;;;;;;5024689;28;20032;-85
2024/01/21 11:36:42;;;;;;;8.52;4.85;;;4.50;99.90;;;;;;5072198;28;20480;-86
2024/01/21 11:39:08;;;;;;;7.13;4.82;;;4.60;99.90;;;;;;5057394;28;20032;-87
2024/01/21 11:41:39;;;;;;;7.70;4.72;;;4.60;99.90;;;;;;5047424;28;20031;-87
2024/01/21 11:44:28;;;;;;;7.57;4.85;;;4.60;99.90;;;;;;5074609;28;20028;-87
2024/01/21 11:46:55;;;;;;;6.75;4.63;;;4.60;99.90;;;;;;5061282;28;20035;-86
2024/01/21 11:49:22;;;;;;;5.97;4.70;;;4.60;99.90;;;;;;5060015;28;20486;-86
2024/01/21 11:51:48;;;;;;;7.10;4.82;;;4.60;99.90;;;;;;5061032;28;20107;-88
2024/01/21 11:54:15;;;;;;;6.70;4.78;;;4.60;99.90;;;;;;5093720;28;20039;-85
2024/01/21 11:56:41;;;;;;;6.43;4.72;;;4.70;99.90;;;;;;5049795;28;20016;-86
2024/01/21 11:59:10;;;;;;;7.82;4.60;;;4.70;99.90;;;;;;5080412;28;20032;-86
2024/01/21 12:01:37;;;;;;;5.72;4.03;;;4.70;99.90;;;;;;5096375;28;20885;-87
2024/01/21 12:04:11;;;;;;;7.40;4.95;;;4.70;99.90;;;;;;5072023;28;20044;-86
2024/01/21 12:06:57;;;;;;;7.80;4.53;;;4.80;99.90;;;;;;5066585;28;20024;-87
2024/01/21 12:09:23;;;;;;;5.57;4.40;;;4.80;99.90;;;;;;5038269;28;20119;-87
2024/01/21 12:11:57;;;;;;;6.18;4.55;;;4.80;99.90;;;;;;5069903;28;20366;-86
2024/01/21 12:14:23;;;;;;;7.28;4.70;;;4.80;99.90;;;;;;5041208;28;20035;-88
2024/01/21 12:16:51;;;;;;;7.05;4.55;;;4.80;99.90;;;;;;5057341;28;20457;-86
2024/01/21 12:19:17;;;;;;;7.50;4.45;;;4.90;99.90;;;;;;5061099;28;20058;-88
2024/01/21 12:21:44;;;;;;;6.72;4.90;;;4.90;99.90;;;;;;5064092;28;20095;-88
2024/01/21 12:24:12;;;;;;;6.85;4.80;;;4.90;99.90;;;;;;5056769;28;20024;-85
2024/01/21 12:26:37;;;;;;;6.93;4.82;;;4.90;99.90;;;;;;5074884;28;20021;-87
2024/01/21 12:29:06;;;;;;;8.23;5.13;;;4.90;99.90;;;;;;5023732;28;20559;-87
2024/01/21 12:31:39;;;;;;;8.98;5.05;;;4.90;99.90;;;;;;5074455;28;20031;-86
2024/01/21 12:34:07;;;;;;;7.20;5.35;;;4.90;99.90;;;;;;5056638;28;20021;-87
2024/01/21 12:36:39;;;;;;;6.90;4.97;;;4.90;99.90;;;;;;5055337;28;20135;-85
2024/01/21 12:39:04;;;;;;;8.60;5.32;;;4.90;99.90;;;;;;5057372;28;20502;-86
2024/01/21 12:41:31;;;;;;;7.18;5.07;;;4.90;99.90;;;;;;5058326;28;20025;-87
2024/01/21 12:43:56;;;;;;;6.50;4.70;;;4.90;99.90;;;;;;5054458;28;20032;-86
2024/01/21 12:46:22;;;;;;;7.32;5.00;;;5.00;99.90;;;;;;5059428;28;20474;-88
2024/01/21 12:48:49;;;;;;;6.78;4.57;;;5.00;99.90;;;;;;5058988;28;20570;-87
2024/01/21 12:51:19;;;;;;;7.80;4.60;;;5.00;99.90;;;;;;5058833;28;20082;-85
2024/01/21 12:53:46;;;;;;;7.97;4.65;;;5.10;99.90;;;;;;5066234;28;20031;-85